sensor_id;sensor_type;location;lat;lon;timestamp;pressure;altitude;pressure_sealevel;temperature;humidity
51067;BME280;37112;45.892;-123.962;2023-03-15T00:01:52;100534.78;;;9.08;68.28
51067;BME280;37112;45.892;-123.962;2023-03-15T00:04:06;100533.05;;;9.10;69.05
51067;BME280;37112;45.892;-123.962;2023-03-15T00:06:19;100534.48;;;9.15;68.75
51067;BME280;37112;45.892;-123.962;2023-03-15T00:08:32;100532.40;;;9.12;68.25
51067;BME280;37112;45.892;-123.962;2023-03-15T00:10:46;100532.23;;;9.06;67.83
51067;BME280;37112;45.892;-123.962;2023-03-15T00:13:00;100536.36;;;9.00;67.93
51067;BME280;37112;45.892;-123.962;2023-03-15T00:15:15;100537.15;;;8.96;67.79
51067;BME280;37112;45.892;-123.962;2023-03-15T00:17:28;100536.48;;;8.92;67.85
51067;BME280;37112;45.892;-123.962;2023-03-15T00:19:44;100545.13;;;8.93;67.77
51067;BME280;37112;45.892;-123.962;2023-03-15T00:21:57;100545.33;;;8.90;66.82
51067;BME280;37112;45.892;-123.962;2023-03-15T00:24:11;100549.02;;;8.93;66.93
51067;BME280;37112;45.892;-123.962;2023-03-15T00:26:24;100543.64;;;8.94;67.20
51067;BME280;37112;45.892;-123.962;2023-03-15T00:28:38;100548.02;;;8.95;66.91
51067;BME280;37112;45.892;-123.962;2023-03-15T00:30:58;100547.63;;;8.96;67.30
51067;BME280;37112;45.892;-123.962;2023-03-15T00:33:15;100550.54;;;9.00;67.18
51067;BME280;37112;45.892;-123.962;2023-03-15T00:35:29;100556.16;;;9.03;66.83
51067;BME280;37112;45.892;-123.962;2023-03-15T00:37:44;100554.44;;;9.05;66.74
51067;BME280;37112;45.892;-123.962;2023-03-15T00:39:58;100558.02;;;9.05;66.53
51067;BME280;37112;45.892;-123.962;2023-03-15T00:42:12;100553.73;;;9.06;67.02
51067;BME280;37112;45.892;-123.962;2023-03-15T00:44:26;100554.98;;;9.11;67.77
51067;BME280;37112;45.892;-123.962;2023-03-15T00:46:40;100558.46;;;9.14;67.63
51067;BME280;37112;45.892;-123.962;2023-03-15T00:48:53;100559.16;;;9.09;67.38
51067;BME280;37112;45.892;-123.962;2023-03-15T00:51:09;100562.63;;;9.07;67.56
51067;BME280;37112;45.892;-123.962;2023-03-15T00:53:23;100566.98;;;9.03;67.70
51067;BME280;37112;45.892;-123.962;2023-03-15T00:55:36;100570.09;;;8.99;67.94
51067;BME280;37112;45.892;-123.962;2023-03-15T00:57:50;100571.09;;;8.91;67.12
51067;BME280;37112;45.892;-123.962;2023-03-15T01:00:04;100570.30;;;8.87;67.76
51067;BME280;37112;45.892;-123.962;2023-03-15T01:02:20;100571.52;;;8.87;67.91
51067;BME280;37112;45.892;-123.962;2023-03-15T01:04:33;100571.28;;;8.85;67.21
51067;BME280;37112;45.892;-123.962;2023-03-15T01:06:47;100574.36;;;8.84;67.95
51067;BME280;37112;45.892;-123.962;2023-03-15T01:09:00;100573.39;;;8.86;67.94
51067;BME280;37112;45.892;-123.962;2023-03-15T01:11:14;100574.72;;;8.82;67.46
51067;BME280;37112;45.892;-123.962;2023-03-15T01:13:28;100579.02;;;8.78;67.66
51067;BME280;37112;45.892;-123.962;2023-03-15T01:15:41;100579.91;;;8.75;67.66
51067;BME280;37112;45.892;-123.962;2023-03-15T01:17:56;100577.17;;;8.71;67.48
51067;BME280;37112;45.892;-123.962;2023-03-15T01:20:12;100580.45;;;8.66;67.56
51067;BME280;37112;45.892;-123.962;2023-03-15T01:22:25;100584.16;;;8.63;67.69
51067;BME280;37112;45.892;-123.962;2023-03-15T01:24:39;100587.50;;;8.58;67.59
51067;BME280;37112;45.892;-123.962;2023-03-15T01:26:56;100588.48;;;8.53;67.73
51067;BME280;37112;45.892;-123.962;2023-03-15T01:29:09;100593.33;;;8.50;67.95
51067;BME280;37112;45.892;-123.962;2023-03-15T01:31:24;100590.88;;;8.44;68.08
51067;BME280;37112;45.892;-123.962;2023-03-15T01:33:38;100591.98;;;8.37;68.12
51067;BME280;37112;45.892;-123.962;2023-03-15T01:35:59;100590.59;;;8.33;68.43
51067;BME280;37112;45.892;-123.962;2023-03-15T01:38:14;100595.09;;;8.29;68.55
51067;BME280;37112;45.892;-123.962;2023-03-15T01:40:27;100597.15;;;8.24;68.76
51067;BME280;37112;45.892;-123.962;2023-03-15T01:43:10;100599.16;;;8.20;69.02
51067;BME280;37112;45.892;-123.962;2023-03-15T01:48:13;100603.13;;;8.09;69.27
51067;BME280;37112;45.892;-123.962;2023-03-15T01:50:26;100606.24;;;8.05;69.18
51067;BME280;37112;45.892;-123.962;2023-03-15T01:52:42;100605.08;;;8.00;69.31
51067;BME280;37112;45.892;-123.962;2023-03-15T01:55:03;100609.81;;;7.98;69.25
51067;BME280;37112;45.892;-123.962;2023-03-15T01:57:19;100608.64;;;7.94;69.39
51067;BME280;37112;45.892;-123.962;2023-03-15T01:59:37;100613.40;;;7.91;69.49
51067;BME280;37112;45.892;-123.962;2023-03-15T02:01:53;100618.66;;;7.89;69.67
51067;BME280;37112;45.892;-123.962;2023-03-15T02:04:09;100620.78;;;7.86;69.77
51067;BME280;37112;45.892;-123.962;2023-03-15T02:06:25;100624.98;;;7.80;69.74
51067;BME280;37112;45.892;-123.962;2023-03-15T02:08:40;100626.81;;;7.76;69.83
51067;BME280;37112;45.892;-123.962;2023-03-15T02:10:56;100626.75;;;7.71;69.97
51067;BME280;37112;45.892;-123.962;2023-03-15T02:13:10;100631.40;;;7.67;70.08
51067;BME280;37112;45.892;-123.962;2023-03-15T02:15:25;100634.85;;;7.63;70.24
51067;BME280;37112;45.892;-123.962;2023-03-15T02:17:45;100644.27;;;7.59;70.29
51067;BME280;37112;45.892;-123.962;2023-03-15T02:20:08;100649.40;;;7.55;70.45
51067;BME280;37112;45.892;-123.962;2023-03-15T02:22:32;100652.91;;;7.52;70.60
51067;BME280;37112;45.892;-123.962;2023-03-15T02:24:54;100661.02;;;7.49;70.88
51067;BME280;37112;45.892;-123.962;2023-03-15T02:27:09;100663.45;;;7.47;71.08
51067;BME280;37112;45.892;-123.962;2023-03-15T02:29:23;100664.73;;;7.46;71.15
51067;BME280;37112;45.892;-123.962;2023-03-15T02:31:38;100670.23;;;7.46;71.67
51067;BME280;37112;45.892;-123.962;2023-03-15T02:33:52;100677.05;;;7.44;71.56
51067;BME280;37112;45.892;-123.962;2023-03-15T02:36:16;100681.45;;;7.41;72.07
51067;BME280;37112;45.892;-123.962;2023-03-15T02:38:30;100686.09;;;7.40;72.07
51067;BME280;37112;45.892;-123.962;2023-03-15T02:40:45;100689.86;;;7.39;72.28
51067;BME280;37112;45.892;-123.962;2023-03-15T02:43:01;100694.67;;;7.38;72.10
51067;BME280;37112;45.892;-123.962;2023-03-15T02:45:15;100699.65;;;7.35;72.09
51067;BME280;37112;45.892;-123.962;2023-03-15T02:47:29;100707.38;;;7.32;72.18
51067;BME280;37112;45.892;-123.962;2023-03-15T02:49:48;100712.88;;;7.32;72.28
51067;BME280;37112;45.892;-123.962;2023-03-15T02:52:02;100714.52;;;7.31;72.37
51067;BME280;37112;45.892;-123.962;2023-03-15T02:54:15;100722.58;;;7.29;72.35
51067;BME280;37112;45.892;-123.962;2023-03-15T02:56:29;100724.98;;;7.27;72.45
51067;BME280;37112;45.892;-123.962;2023-03-15T02:58:43;100728.52;;;7.26;72.46
51067;BME280;37112;45.892;-123.962;2023-03-15T03:00:57;100734.17;;;7.26;72.64
51067;BME280;37112;45.892;-123.962;2023-03-15T03:03:11;100736.39;;;7.28;72.88
51067;BME280;37112;45.892;-123.962;2023-03-15T03:05:24;100742.64;;;7.30;72.91
51067;BME280;37112;45.892;-123.962;2023-03-15T03:07:37;100744.70;;;7.31;73.06
51067;BME280;37112;45.892;-123.962;2023-03-15T03:09:52;100747.88;;;7.31;72.94
51067;BME280;37112;45.892;-123.962;2023-03-15T03:12:06;100752.13;;;7.31;72.99
51067;BME280;37112;45.892;-123.962;2023-03-15T03:14:20;100760.45;;;7.31;73.04
51067;BME280;37112;45.892;-123.962;2023-03-15T03:16:34;100763.50;;;7.26;72.73
51067;BME280;37112;45.892;-123.962;2023-03-15T03:18:48;100770.14;;;7.21;72.45
51067;BME280;37112;45.892;-123.962;2023-03-15T03:21:06;100771.27;;;7.13;72.31
51067;BME280;37112;45.892;-123.962;2023-03-15T03:23:19;100771.45;;;7.03;71.99
51067;BME280;37112;45.892;-123.962;2023-03-15T03:25:35;100778.57;;;6.94;72.25
51067;BME280;37112;45.892;-123.962;2023-03-15T03:27:48;100780.71;;;6.87;72.18
51067;BME280;37112;45.892;-123.962;2023-03-15T03:30:02;100785.87;;;6.80;72.09
51067;BME280;37112;45.892;-123.962;2023-03-15T03:32:17;100787.46;;;6.73;72.49
51067;BME280;37112;45.892;-123.962;2023-03-15T03:34:31;100788.91;;;6.65;72.28
51067;BME280;37112;45.892;-123.962;2023-03-15T03:36:44;100791.21;;;6.57;72.54
51067;BME280;37112;45.892;-123.962;2023-03-15T03:39:01;100795.25;;;6.55;72.67
51067;BME280;37112;45.892;-123.962;2023-03-15T03:41:15;100798.58;;;6.48;72.41
51067;BME280;37112;45.892;-123.962;2023-03-15T03:43:29;100799.46;;;6.40;72.40
51067;BME280;37112;45.892;-123.962;2023-03-15T03:45:43;100803.14;;;6.34;72.45
51067;BME280;37112;45.892;-123.962;2023-03-15T03:47:56;100803.41;;;6.28;72.64
51067;BME280;37112;45.892;-123.962;2023-03-15T03:50:12;100811.30;;;6.26;72.81
51067;BME280;37112;45.892;-123.962;2023-03-15T03:52:25;100818.99;;;6.24;72.88
51067;BME280;37112;45.892;-123.962;2023-03-15T03:54:46;100825.23;;;6.22;73.10
51067;BME280;37112;45.892;-123.962;2023-03-15T03:56:59;100828.99;;;6.21;73.16
51067;BME280;37112;45.892;-123.962;2023-03-15T03:59:15;100831.11;;;6.21;73.27
51067;BME280;37112;45.892;-123.962;2023-03-15T04:01:35;100835.69;;;6.21;73.50
51067;BME280;37112;45.892;-123.962;2023-03-15T04:03:50;100845.74;;;6.21;73.58
51067;BME280;37112;45.892;-123.962;2023-03-15T04:06:06;100849.84;;;6.20;73.60
51067;BME280;37112;45.892;-123.962;2023-03-15T04:08:23;100855.26;;;6.17;73.45
51067;BME280;37112;45.892;-123.962;2023-03-15T04:10:37;100860.24;;;6.16;73.58
51067;BME280;37112;45.892;-123.962;2023-03-15T04:12:51;100866.64;;;6.16;73.78
51067;BME280;37112;45.892;-123.962;2023-03-15T04:15:06;100871.06;;;6.15;74.00
51067;BME280;37112;45.892;-123.962;2023-03-15T04:17:19;100875.93;;;6.12;73.76
51067;BME280;37112;45.892;-123.962;2023-03-15T04:19:33;100885.86;;;6.11;74.08
51067;BME280;37112;45.892;-123.962;2023-03-15T04:21:47;100889.48;;;6.13;74.52
51067;BME280;37112;45.892;-123.962;2023-03-15T04:24:24;100893.04;;;6.20;74.99
51067;BME280;37112;45.892;-123.962;2023-03-15T04:26:44;100894.24;;;6.28;75.44
51067;BME280;37112;45.892;-123.962;2023-03-15T04:29:15;100899.42;;;6.37;75.74
51067;BME280;37112;45.892;-123.962;2023-03-15T04:31:57;100902.39;;;6.50;75.98
51067;BME280;37112;45.892;-123.962;2023-03-15T04:34:32;100902.63;;;6.59;76.08
51067;BME280;37112;45.892;-123.962;2023-03-15T04:37:10;100904.75;;;6.66;76.10
51067;BME280;37112;45.892;-123.962;2023-03-15T04:39:53;100912.84;;;6.71;75.70
51067;BME280;37112;45.892;-123.962;2023-03-15T04:42:26;100917.79;;;6.74;75.57
51067;BME280;37112;45.892;-123.962;2023-03-15T04:45:13;100916.44;;;6.77;75.37
51067;BME280;37112;45.892;-123.962;2023-03-15T04:47:29;100920.80;;;6.78;75.33
51067;BME280;37112;45.892;-123.962;2023-03-15T04:50:13;100923.01;;;6.80;75.17
51067;BME280;37112;45.892;-123.962;2023-03-15T04:52:49;100921.38;;;6.80;74.98
51067;BME280;37112;45.892;-123.962;2023-03-15T04:55:21;100922.08;;;6.80;74.93
51067;BME280;37112;45.892;-123.962;2023-03-15T04:57:58;100928.21;;;6.81;74.94
51067;BME280;37112;45.892;-123.962;2023-03-15T05:00:28;100932.73;;;6.83;74.74
51067;BME280;37112;45.892;-123.962;2023-03-15T05:03:04;100940.88;;;6.82;74.81
51067;BME280;37112;45.892;-123.962;2023-03-15T05:05:27;100954.14;;;6.82;74.58
51067;BME280;37112;45.892;-123.962;2023-03-15T05:08:09;100955.29;;;6.80;74.56
51067;BME280;37112;45.892;-123.962;2023-03-15T05:10:40;100957.92;;;6.80;74.66
51067;BME280;37112;45.892;-123.962;2023-03-15T05:13:08;100965.45;;;6.82;74.64
51067;BME280;37112;45.892;-123.962;2023-03-15T05:15:41;100970.69;;;6.83;74.86
51067;BME280;37112;45.892;-123.962;2023-03-15T05:18:26;100976.29;;;6.83;74.93
51067;BME280;37112;45.892;-123.962;2023-03-15T05:20:54;100980.31;;;6.85;75.01
51067;BME280;37112;45.892;-123.962;2023-03-15T05:23:25;100982.16;;;6.87;75.09
51067;BME280;37112;45.892;-123.962;2023-03-15T05:25:58;100982.27;;;6.88;75.16
51067;BME280;37112;45.892;-123.962;2023-03-15T05:28:28;100983.42;;;6.89;75.26
51067;BME280;37112;45.892;-123.962;2023-03-15T05:31:09;100986.66;;;6.91;75.30
51067;BME280;37112;45.892;-123.962;2023-03-15T05:33:46;100989.40;;;6.94;75.26
51067;BME280;37112;45.892;-123.962;2023-03-15T05:36:12;100994.26;;;6.95;75.33
51067;BME280;37112;45.892;-123.962;2023-03-15T05:38:50;101003.09;;;6.95;75.10
51067;BME280;37112;45.892;-123.962;2023-03-15T05:41:21;101008.41;;;6.95;74.97
51067;BME280;37112;45.892;-123.962;2023-03-15T05:44:00;101008.45;;;6.94;74.83
51067;BME280;37112;45.892;-123.962;2023-03-15T05:46:14;101017.70;;;6.93;74.81
51067;BME280;37112;45.892;-123.962;2023-03-15T05:48:50;101024.05;;;6.92;74.92
51067;BME280;37112;45.892;-123.962;2023-03-15T05:51:15;101023.00;;;6.92;74.95
51067;BME280;37112;45.892;-123.962;2023-03-15T05:54:04;101027.95;;;6.92;75.00
51067;BME280;37112;45.892;-123.962;2023-03-15T05:56:29;101033.27;;;6.91;75.04
51067;BME280;37112;45.892;-123.962;2023-03-15T05:58:49;101038.02;;;6.92;75.07
51067;BME280;37112;45.892;-123.962;2023-03-15T06:01:03;101038.20;;;6.91;75.13
51067;BME280;37112;45.892;-123.962;2023-03-15T06:03:40;101039.30;;;6.91;75.25
51067;BME280;37112;45.892;-123.962;2023-03-15T06:05:57;101046.16;;;6.91;75.31
51067;BME280;37112;45.892;-123.962;2023-03-15T06:08:16;101050.92;;;6.91;75.32
51067;BME280;37112;45.892;-123.962;2023-03-15T06:10:30;101057.63;;;6.91;75.40
51067;BME280;37112;45.892;-123.962;2023-03-15T06:12:46;101058.17;;;6.91;75.31
51067;BME280;37112;45.892;-123.962;2023-03-15T06:15:00;101056.42;;;6.91;75.31
51067;BME280;37112;45.892;-123.962;2023-03-15T06:17:13;101056.48;;;6.90;75.04
51067;BME280;37112;45.892;-123.962;2023-03-15T06:19:26;101058.49;;;6.88;74.84
51067;BME280;37112;45.892;-123.962;2023-03-15T06:21:40;101064.24;;;6.86;74.77
51067;BME280;37112;45.892;-123.962;2023-03-15T06:24:01;101065.02;;;6.85;74.77
51067;BME280;37112;45.892;-123.962;2023-03-15T06:26:16;101069.21;;;6.86;74.91
51067;BME280;37112;45.892;-123.962;2023-03-15T06:28:29;101066.86;;;6.87;74.87
51067;BME280;37112;45.892;-123.962;2023-03-15T06:30:42;101063.35;;;6.87;74.71
51067;BME280;37112;45.892;-123.962;2023-03-15T06:32:56;101071.23;;;6.88;74.76
51067;BME280;37112;45.892;-123.962;2023-03-15T06:35:11;101070.73;;;6.87;74.69
51067;BME280;37112;45.892;-123.962;2023-03-15T06:37:24;101074.96;;;6.87;74.41
51067;BME280;37112;45.892;-123.962;2023-03-15T06:39:44;101074.99;;;6.87;74.21
51067;BME280;37112;45.892;-123.962;2023-03-15T06:41:57;101080.27;;;6.87;74.34
51067;BME280;37112;45.892;-123.962;2023-03-15T06:44:13;101084.30;;;6.88;74.31
51067;BME280;37112;45.892;-123.962;2023-03-15T06:46:27;101090.77;;;6.89;74.47
51067;BME280;37112;45.892;-123.962;2023-03-15T06:48:40;101088.08;;;6.90;74.57
51067;BME280;37112;45.892;-123.962;2023-03-15T06:50:57;101089.04;;;6.91;74.82
51067;BME280;37112;45.892;-123.962;2023-03-15T06:53:11;101087.95;;;6.93;74.73
51067;BME280;37112;45.892;-123.962;2023-03-15T06:55:24;101088.06;;;6.94;74.76
51067;BME280;37112;45.892;-123.962;2023-03-15T06:57:37;101088.16;;;6.96;74.60
51067;BME280;37112;45.892;-123.962;2023-03-15T06:59:52;101091.95;;;6.97;74.72
51067;BME280;37112;45.892;-123.962;2023-03-15T07:02:08;101095.23;;;6.99;74.77
51067;BME280;37112;45.892;-123.962;2023-03-15T07:04:25;101101.65;;;7.02;74.81
51067;BME280;37112;45.892;-123.962;2023-03-15T07:06:37;101101.71;;;7.04;74.92
51067;BME280;37112;45.892;-123.962;2023-03-15T07:08:50;101105.08;;;7.08;75.05
51067;BME280;37112;45.892;-123.962;2023-03-15T07:11:04;101110.45;;;7.10;75.10
51067;BME280;37112;45.892;-123.962;2023-03-15T07:13:17;101115.77;;;7.13;75.70
51067;BME280;37112;45.892;-123.962;2023-03-15T07:15:30;101129.52;;;7.06;74.90
51067;BME280;37112;45.892;-123.962;2023-03-15T07:17:43;101132.54;;;6.94;74.80
51067;BME280;37112;45.892;-123.962;2023-03-15T07:19:57;101132.88;;;6.83;74.70
51067;BME280;37112;45.892;-123.962;2023-03-15T07:22:10;101132.50;;;6.76;74.76
51067;BME280;37112;45.892;-123.962;2023-03-15T07:24:24;101134.77;;;6.73;74.85
51067;BME280;37112;45.892;-123.962;2023-03-15T07:26:38;101133.10;;;6.70;75.00
51067;BME280;37112;45.892;-123.962;2023-03-15T07:28:50;101133.71;;;6.68;75.18
51067;BME280;37112;45.892;-123.962;2023-03-15T07:31:04;101140.84;;;6.67;75.23
51067;BME280;37112;45.892;-123.962;2023-03-15T07:33:18;101154.56;;;6.64;76.95
51067;BME280;37112;45.892;-123.962;2023-03-15T07:35:31;101170.02;;;6.61;77.15
51067;BME280;37112;45.892;-123.962;2023-03-15T07:37:44;101174.98;;;6.61;78.58
51067;BME280;37112;45.892;-123.962;2023-03-15T07:39:57;101178.20;;;6.60;78.75
51067;BME280;37112;45.892;-123.962;2023-03-15T07:42:18;101180.29;;;6.57;79.54
51067;BME280;37112;45.892;-123.962;2023-03-15T07:44:33;101182.82;;;6.55;79.78
51067;BME280;37112;45.892;-123.962;2023-03-15T07:46:46;101188.84;;;6.55;79.43
51067;BME280;37112;45.892;-123.962;2023-03-15T07:48:59;101191.83;;;6.55;80.03
51067;BME280;37112;45.892;-123.962;2023-03-15T07:51:12;101196.52;;;6.57;80.98
51067;BME280;37112;45.892;-123.962;2023-03-15T07:53:25;101198.31;;;6.56;81.00
51067;BME280;37112;45.892;-123.962;2023-03-15T07:55:38;101204.09;;;6.53;80.57
51067;BME280;37112;45.892;-123.962;2023-03-15T07:57:51;101206.70;;;6.50;80.73
51067;BME280;37112;45.892;-123.962;2023-03-15T08:00:05;101209.65;;;6.47;80.93
51067;BME280;37112;45.892;-123.962;2023-03-15T08:02:24;101210.06;;;6.45;81.17
51067;BME280;37112;45.892;-123.962;2023-03-15T08:04:39;101219.48;;;6.43;80.96
51067;BME280;37112;45.892;-123.962;2023-03-15T08:06:52;101227.09;;;6.43;81.43
51067;BME280;37112;45.892;-123.962;2023-03-15T08:09:05;101234.59;;;6.45;81.97
51067;BME280;37112;45.892;-123.962;2023-03-15T08:11:18;101239.34;;;6.45;81.87
51067;BME280;37112;45.892;-123.962;2023-03-15T08:13:31;101243.05;;;6.45;81.85
51067;BME280;37112;45.892;-123.962;2023-03-15T08:15:46;101244.36;;;6.43;81.89
51067;BME280;37112;45.892;-123.962;2023-03-15T08:18:00;101244.55;;;6.43;81.89
51067;BME280;37112;45.892;-123.962;2023-03-15T08:20:15;101251.92;;;6.43;81.92
51067;BME280;37112;45.892;-123.962;2023-03-15T08:22:29;101254.03;;;6.44;81.78
51067;BME280;37112;45.892;-123.962;2023-03-15T08:24:42;101256.86;;;6.44;81.95
51067;BME280;37112;45.892;-123.962;2023-03-15T08:26:56;101258.58;;;6.45;81.97
51067;BME280;37112;45.892;-123.962;2023-03-15T08:29:10;101262.38;;;6.47;82.14
51067;BME280;37112;45.892;-123.962;2023-03-15T08:31:24;101268.75;;;6.51;82.07
51067;BME280;37112;45.892;-123.962;2023-03-15T08:33:38;101270.27;;;6.53;81.97
51067;BME280;37112;45.892;-123.962;2023-03-15T08:35:55;101278.83;;;6.55;82.12
51067;BME280;37112;45.892;-123.962;2023-03-15T08:38:09;101285.48;;;6.56;82.02
51067;BME280;37112;45.892;-123.962;2023-03-15T08:40:26;101296.85;;;6.58;82.09
51067;BME280;37112;45.892;-123.962;2023-03-15T08:42:40;101298.02;;;6.59;82.09
51067;BME280;37112;45.892;-123.962;2023-03-15T08:44:54;101303.48;;;6.59;81.80
51067;BME280;37112;45.892;-123.962;2023-03-15T08:47:09;101306.63;;;6.60;81.83
51067;BME280;37112;45.892;-123.962;2023-03-15T08:49:22;101311.02;;;6.61;81.91
51067;BME280;37112;45.892;-123.962;2023-03-15T08:51:35;101315.25;;;6.61;81.84
51067;BME280;37112;45.892;-123.962;2023-03-15T08:53:48;101323.50;;;6.62;81.97
51067;BME280;37112;45.892;-123.962;2023-03-15T08:56:01;101323.91;;;6.65;82.18
51067;BME280;37112;45.892;-123.962;2023-03-15T08:58:14;101332.43;;;6.68;82.62
51067;BME280;37112;45.892;-123.962;2023-03-15T09:00:27;101337.65;;;6.70;82.35
51067;BME280;37112;45.892;-123.962;2023-03-15T09:02:40;101342.52;;;6.72;82.16
51067;BME280;37112;45.892;-123.962;2023-03-15T09:04:54;101346.08;;;6.71;81.81
51067;BME280;37112;45.892;-123.962;2023-03-15T09:07:07;101354.95;;;6.70;81.63
51067;BME280;37112;45.892;-123.962;2023-03-15T09:09:22;101355.13;;;6.70;81.71
51067;BME280;37112;45.892;-123.962;2023-03-15T09:11:35;101360.71;;;6.71;81.65
51067;BME280;37112;45.892;-123.962;2023-03-15T09:13:48;101372.20;;;6.71;81.46
51067;BME280;37112;45.892;-123.962;2023-03-15T09:16:01;101371.09;;;6.72;81.55
51067;BME280;37112;45.892;-123.962;2023-03-15T09:18:15;101370.35;;;6.73;81.43
51067;BME280;37112;45.892;-123.962;2023-03-15T09:20:28;101376.98;;;6.75;81.54
51067;BME280;37112;45.892;-123.962;2023-03-15T09:22:41;101381.30;;;6.78;81.80
51067;BME280;37112;45.892;-123.962;2023-03-15T09:24:54;101384.24;;;6.79;81.60
51067;BME280;37112;45.892;-123.962;2023-03-15T09:27:07;101388.64;;;6.79;81.96
51067;BME280;37112;45.892;-123.962;2023-03-15T09:29:21;101396.56;;;6.80;82.27
51067;BME280;37112;45.892;-123.962;2023-03-15T09:31:35;101396.73;;;6.80;82.28
51067;BME280;37112;45.892;-123.962;2023-03-15T09:33:48;101403.44;;;6.80;82.29
51067;BME280;37112;45.892;-123.962;2023-03-15T09:36:01;101407.99;;;6.80;82.41
51067;BME280;37112;45.892;-123.962;2023-03-15T09:38:14;101411.35;;;6.80;82.63
51067;BME280;37112;45.892;-123.962;2023-03-15T09:40:29;101418.60;;;6.80;82.69
51067;BME280;37112;45.892;-123.962;2023-03-15T09:42:55;101422.87;;;6.79;82.40
51067;BME280;37112;45.892;-123.962;2023-03-15T09:45:17;101426.94;;;6.79;82.02
51067;BME280;37112;45.892;-123.962;2023-03-15T09:47:41;101432.01;;;6.80;81.91
51067;BME280;37112;45.892;-123.962;2023-03-15T09:50:01;101437.50;;;6.80;81.70
51067;BME280;37112;45.892;-123.962;2023-03-15T09:52:25;101442.75;;;6.81;81.80
51067;BME280;37112;45.892;-123.962;2023-03-15T09:54:45;101450.48;;;6.82;81.26
51067;BME280;37112;45.892;-123.962;2023-03-15T09:57:03;101454.38;;;6.81;80.97
51067;BME280;37112;45.892;-123.962;2023-03-15T09:59:20;101461.10;;;6.81;80.75
51067;BME280;37112;45.892;-123.962;2023-03-15T10:01:39;101462.79;;;6.79;80.09
51067;BME280;37112;45.892;-123.962;2023-03-15T10:03:54;101466.58;;;6.76;79.15
51067;BME280;37112;45.892;-123.962;2023-03-15T10:06:15;101469.38;;;6.73;78.69
51067;BME280;37112;45.892;-123.962;2023-03-15T10:08:28;101472.81;;;6.71;78.47
51067;BME280;37112;45.892;-123.962;2023-03-15T10:10:46;101480.21;;;6.71;78.53
51067;BME280;37112;45.892;-123.962;2023-03-15T10:13:08;101485.84;;;6.71;78.44
51067;BME280;37112;45.892;-123.962;2023-03-15T10:15:40;101491.61;;;6.73;78.77
51067;BME280;37112;45.892;-123.962;2023-03-15T10:18:09;101492.77;;;6.74;78.62
51067;BME280;37112;45.892;-123.962;2023-03-15T10:20:28;101496.14;;;6.74;78.48
51067;BME280;37112;45.892;-123.962;2023-03-15T10:22:49;101504.35;;;6.72;77.39
51067;BME280;37112;45.892;-123.962;2023-03-15T10:25:12;101503.89;;;6.70;77.29
51067;BME280;37112;45.892;-123.962;2023-03-15T10:27:31;101511.70;;;6.69;77.06
51067;BME280;37112;45.892;-123.962;2023-03-15T10:29:45;101515.14;;;6.67;76.50
51067;BME280;37112;45.892;-123.962;2023-03-15T10:32:00;101523.09;;;6.67;76.52
51067;BME280;37112;45.892;-123.962;2023-03-15T10:34:14;101523.31;;;6.65;76.51
51067;BME280;37112;45.892;-123.962;2023-03-15T10:36:28;101527.90;;;6.65;76.66
51067;BME280;37112;45.892;-123.962;2023-03-15T10:38:42;101530.23;;;6.64;76.74
51067;BME280;37112;45.892;-123.962;2023-03-15T10:40:58;101531.34;;;6.63;76.13
51067;BME280;37112;45.892;-123.962;2023-03-15T10:43:22;101533.70;;;6.61;75.87
51067;BME280;37112;45.892;-123.962;2023-03-15T10:45:38;101537.91;;;6.57;74.89
51067;BME280;37112;45.892;-123.962;2023-03-15T10:47:52;101536.55;;;6.56;75.26
51067;BME280;37112;45.892;-123.962;2023-03-15T10:50:12;101541.70;;;6.55;75.16
51067;BME280;37112;45.892;-123.962;2023-03-15T10:52:42;101547.64;;;6.57;75.03
51067;BME280;37112;45.892;-123.962;2023-03-15T10:55:02;101552.50;;;6.59;75.55
51067;BME280;37112;45.892;-123.962;2023-03-15T10:57:18;101554.70;;;6.61;75.50
51067;BME280;37112;45.892;-123.962;2023-03-15T10:59:34;101564.39;;;6.62;75.87
51067;BME280;37112;45.892;-123.962;2023-03-15T11:01:48;101568.89;;;6.64;76.13
51067;BME280;37112;45.892;-123.962;2023-03-15T11:04:21;101575.27;;;6.64;75.92
51067;BME280;37112;45.892;-123.962;2023-03-15T11:06:42;101579.90;;;6.63;76.01
51067;BME280;37112;45.892;-123.962;2023-03-15T11:09:09;101586.48;;;6.60;74.98
51067;BME280;37112;45.892;-123.962;2023-03-15T11:11:25;101589.05;;;6.58;74.89
51067;BME280;37112;45.892;-123.962;2023-03-15T11:13:39;101592.30;;;6.56;74.09
51067;BME280;37112;45.892;-123.962;2023-03-15T11:16:01;101590.72;;;6.56;73.85
51067;BME280;37112;45.892;-123.962;2023-03-15T11:18:24;101594.73;;;6.57;74.15
51067;BME280;37112;45.892;-123.962;2023-03-15T11:20:40;101598.25;;;6.58;74.37
51067;BME280;37112;45.892;-123.962;2023-03-15T11:22:55;101604.03;;;6.59;74.28
51067;BME280;37112;45.892;-123.962;2023-03-15T11:25:14;101607.17;;;6.59;74.31
51067;BME280;37112;45.892;-123.962;2023-03-15T11:27:28;101610.49;;;6.60;74.58
51067;BME280;37112;45.892;-123.962;2023-03-15T11:29:46;101615.39;;;6.62;74.78
51067;BME280;37112;45.892;-123.962;2023-03-15T11:32:02;101614.89;;;6.60;74.00
51067;BME280;37112;45.892;-123.962;2023-03-15T11:34:34;101619.33;;;6.60;74.16
51067;BME280;37112;45.892;-123.962;2023-03-15T11:36:51;101624.80;;;6.60;74.29
51067;BME280;37112;45.892;-123.962;2023-03-15T11:39:25;101626.30;;;6.58;73.45
51067;BME280;37112;45.892;-123.962;2023-03-15T11:41:45;101628.63;;;6.57;73.36
51067;BME280;37112;45.892;-123.962;2023-03-15T11:44:07;101633.39;;;6.57;73.25
51067;BME280;37112;45.892;-123.962;2023-03-15T11:46:29;101637.42;;;6.57;72.99